Time;durP1;ratioP1;P1;durP2;ratioP2;P2;SDS_P1;SDS_P2;PMS_P1;PMS_P2;Temp;Humidity;BMP_temperature;BMP_pressure;BME280_temperature;BME280_humidity;BME280_pressure;Samples;Min_cycle;Max_cycle;Signal;HPM_P1;HPM_P2
2021/04/22 00:00:24;;;;;;;3.45;1.72;;;;;;;8.98;69.73;97927.12;1709904;83;21615;-70
2021/04/22 00:02:54;;;;;;;6.20;2.20;;;;;;;9.02;69.49;97935.78;1709942;83;21146;-70
2021/04/22 00:05:39;;;;;;;4.00;2.15;;;;;;;9.02;69.37;97925.42;1709744;83;21170;-66
2021/04/22 00:08:10;;;;;;;5.37;2.65;;;;;;;9.05;69.03;97926.45;1710049;83;21229;-65
2021/04/22 00:10:43;;;;;;;3.95;2.50;;;;;;;9.08;68.86;97919.34;1709969;83;21599;-65
2021/04/22 00:13:14;;;;;;;5.05;2.30;;;;;;;9.08;68.44;97924.53;1709740;83;21603;-70
2021/04/22 00:15:43;;;;;;;4.72;2.30;;;;;;;9.04;68.68;97914.44;1710057;83;21177;-70
2021/04/22 00:18:12;;;;;;;4.50;2.08;;;;;;;9.01;69.01;97913.42;1709930;83;21198;-70
2021/04/22 00:20:41;;;;;;;4.25;2.45;;;;;;;8.95;68.85;97915.70;1709880;83;21186;-70
2021/04/22 00:23:13;;;;;;;2.72;1.70;;;;;;;8.89;69.05;97916.25;1709986;83;21138;-70
2021/04/22 00:25:41;;;;;;;3.30;1.87;;;;;;;8.76;70.56;97915.19;1709977;83;21178;-71
2021/04/22 00:28:12;;;;;;;4.58;2.12;;;;;;;8.66;70.54;97916.12;1709848;83;21194;-70
2021/04/22 00:30:45;;;;;;;3.45;1.80;;;;;;;8.60;70.07;97917.45;1709944;83;21166;-70
2021/04/22 00:33:17;;;;;;;3.60;2.02;;;;;;;8.58;69.37;97917.61;1690228;83;21658;-70
2021/04/22 00:35:46;;;;;;;2.80;2.17;;;;;;;8.56;69.54;97912.20;1709700;83;21154;-70
2021/04/22 00:38:16;;;;;;;5.00;2.22;;;;;;;8.54;69.51;97912.81;1710075;83;21210;-70
2021/04/22 00:40:47;;;;;;;2.67;2.00;;;;;;;8.51;69.89;97914.38;1710165;83;21165;-66
2021/04/22 00:43:19;;;;;;;3.98;2.20;;;;;;;8.45;70.11;97906.65;1710025;83;21234;-71
2021/04/22 00:45:48;;;;;;;4.70;2.05;;;;;;;8.38;71.20;97909.89;1709977;83;21615;-70
2021/04/22 00:48:22;;;;;;;5.25;2.60;;;;;;;8.32;71.48;97915.59;1710096;83;21225;-71
2021/04/22 00:50:53;;;;;;;4.20;2.55;;;;;;;8.23;72.20;97915.04;1709928;83;21185;-70
2021/04/22 00:53:22;;;;;;;3.40;2.58;;;;;;;8.16;72.99;97921.20;1681445;83;21187;-70
2021/04/22 00:55:55;;;;;;;4.80;3.00;;;;;;;8.10;73.02;97917.36;1675565;85;21615;-70
2021/04/22 00:58:23;;;;;;;5.87;2.45;;;;;;;8.07;73.08;97918.09;1675446;85;21639;-71
2021/04/22 01:00:59;;;;;;;6.12;2.42;;;;;;;8.03;73.31;97919.29;1675193;85;21174;-71
2021/04/22 01:03:29;;;;;;;6.65;2.35;;;;;;;8.00;73.13;97915.67;1675656;85;21175;-71
2021/04/22 01:06:07;;;;;;;4.00;2.33;;;;;;;7.96;73.32;97916.41;1675544;85;21663;-72
2021/04/22 01:08:35;;;;;;;4.75;2.75;;;;;;;7.95;72.49;97912.64;1675753;84;21159;-70
2021/04/22 01:11:05;;;;;;;3.62;2.37;;;;;;;7.92;73.65;97916.31;1675373;85;21164;-70
2021/04/22 01:13:32;;;;;;;4.87;2.55;;;;;;;7.88;75.53;97914.92;1675367;84;21226;-70
2021/04/22 01:16:01;;;;;;;3.22;2.00;;;;;;;7.88;74.49;97913.63;1675630;85;21583;-69
2021/04/22 01:18:29;;;;;;;9.48;3.25;;;;;;;7.88;75.15;97916.22;1675528;86;21196;-66
2021/04/22 01:21:03;;;;;;;4.40;3.10;;;;;;;7.84;76.04;97916.59;1675510;85;21623;-66
2021/04/22 01:23:31;;;;;;;3.75;2.37;;;;;;;7.82;75.15;97919.80;1675664;85;21329;-67
2021/04/22 01:25:59;;;;;;;5.97;3.10;;;;;;;7.81;74.68;97912.98;1675470;84;21170;-66
2021/04/22 01:28:27;;;;;;;4.33;2.42;;;;;;;7.79;74.56;97912.27;1675407;85;21203;-66
2021/04/22 01:30:56;;;;;;;4.03;2.27;;;;;;;7.75;74.24;97907.83;1675622;84;21147;-67
2021/04/22 01:33:28;;;;;;;5.60;2.98;;;;;;;7.73;74.20;97908.91;1675494;84;21171;-72
2021/04/22 01:35:59;;;;;;;3.83;2.20;;;;;;;7.69;74.20;97906.23;1675602;84;21603;-72
2021/04/22 01:38:29;;;;;;;4.45;3.27;;;;;;;7.64;74.64;97903.55;1675791;84;21175;-72
2021/04/22 01:40:59;;;;;;;4.85;2.70;;;;;;;7.60;75.20;97907.33;1675809;84;21178;-72
2021/04/22 01:43:28;;;;;;;4.12;2.40;;;;;;;7.56;75.71;97903.82;1675308;86;21599;-72
2021/04/22 01:45:57;;;;;;;4.75;2.92;;;;;;;7.51;76.08;97901.60;1675443;86;21211;-67
2021/04/22 01:48:28;;;;;;;5.75;2.85;;;;;;;7.46;76.79;97903.77;1675581;85;21541;-68
2021/04/22 01:50:56;;;;;;;5.65;3.00;;;;;;;7.43;76.21;97901.41;1675429;84;21368;-69
2021/04/22 01:53:25;;;;;;;4.95;3.17;;;;;;;7.40;76.65;97907.30;1700480;83;21594;-67
2021/04/22 01:55:53;;;;;;;5.67;2.77;;;;;;;7.37;75.89;97914.01;1710371;83;21173;-66
2021/04/22 02:01:05;;;;;;;6.12;2.77;;;;;;;7.32;76.17;97910.97;1677542;85;21129;-66
2021/04/22 02:03:36;;;;;;;4.10;2.87;;;;;;;7.28;78.03;97910.86;1677041;85;21714;-66
2021/04/22 02:06:26;;;;;;;4.80;3.42;;;;;;;7.22;78.21;97911.38;1676798;84;21168;-67
2021/04/22 02:08:54;;;;;;;6.75;3.37;;;;;;;7.15;79.52;97909.76;1703367;83;21585;-65
2021/04/22 02:11:25;;;;;;;6.08;3.52;;;;;;;7.09;78.22;97912.81;1703773;84;21227;-65
2021/04/22 02:13:53;;;;;;;7.28;3.65;;;;;;;7.05;77.62;97908.84;1703727;84;21180;-66
2021/04/22 02:16:21;;;;;;;6.15;3.67;;;;;;;7.00;77.49;97913.56;1690981;85;21173;-71
2021/04/22 02:18:49;;;;;;;7.60;3.72;;;;;;;6.94;78.18;97910.98;1703806;83;21229;-71
2021/04/22 02:21:17;;;;;;;6.62;3.77;;;;;;;6.85;80.50;97907.83;1703795;84;21584;-70
2021/04/22 02:23:45;;;;;;;4.78;2.65;;;;;;;6.78;79.10;97909.72;1703706;83;21212;-71
2021/04/22 02:26:13;;;;;;;5.65;3.42;;;;;;;6.72;78.64;97909.75;1691251;84;21169;-70
2021/04/22 02:28:41;;;;;;;6.70;3.20;;;;;;;6.66;79.30;97914.08;1690955;85;21208;-72
2021/04/22 02:31:09;;;;;;;7.22;3.58;;;;;;;6.60;78.77;97913.28;1703787;84;21617;-71
2021/04/22 02:33:37;;;;;;;6.67;3.70;;;;;;;6.55;78.80;97911.52;1703644;84;21184;-70
2021/04/22 02:36:08;;;;;;;8.30;3.95;;;;;;;6.48;79.09;97907.78;1691181;84;21185;-70
2021/04/22 02:38:36;;;;;;;6.80;4.40;;;;;;;6.43;79.84;97909.88;1703779;84;21184;-70
2021/04/22 02:41:04;;;;;;;4.03;2.75;;;;;;;6.38;81.02;97913.30;1703711;83;21608;-65
2021/04/22 02:43:32;;;;;;;6.30;2.95;;;;;;;6.34;80.53;97915.77;1690827;84;21169;-65
2021/04/22 02:46:00;;;;;;;5.78;3.50;;;;;;;6.30;80.27;97922.09;1691017;85;21637;-66
2021/04/22 02:48:28;;;;;;;4.03;2.80;;;;;;;6.25;80.11;97923.73;1690818;85;21198;-65
2021/04/22 02:51:16;;;;;;;4.90;3.12;;;;;;;6.24;80.46;97923.38;1690798;85;21600;-67
2021/04/22 02:53:44;;;;;;;4.95;3.05;;;;;;;6.24;81.45;97924.66;1665362;85;21600;-72
2021/04/22 02:56:12;;;;;;;6.85;3.52;;;;;;;6.28;81.56;97924.78;1677528;85;21606;-72
2021/04/22 02:58:41;;;;;;;6.15;3.52;;;;;;;6.30;80.73;97922.92;1677244;84;21190;-66
2021/04/22 03:01:10;;;;;;;7.92;4.47;;;;;;;6.32;81.64;97917.63;1677314;85;21181;-66
2021/04/22 03:03:38;;;;;;;5.65;3.55;;;;;;;6.34;81.66;97919.64;1677171;84;21169;-67
2021/04/22 03:06:06;;;;;;;5.60;3.58;;;;;;;6.36;82.37;97919.03;1677199;84;21673;-66
2021/04/22 03:08:34;;;;;;;5.75;3.85;;;;;;;6.38;81.42;97919.26;1677398;84;21193;-67
2021/04/22 03:11:02;;;;;;;9.18;4.00;;;;;;;6.41;81.12;97920.80;1677270;85;21165;-71
2021/04/22 03:13:31;;;;;;;7.33;4.58;;;;;;;6.43;81.17;97921.48;1677254;85;21670;-71
2021/04/22 03:15:59;;;;;;;4.80;3.52;;;;;;;6.46;80.99;97925.15;1677251;84;21193;-71
2021/04/22 03:18:27;;;;;;;4.72;3.77;;;;;;;6.44;81.72;97923.96;1677161;85;21189;-70
2021/04/22 03:20:55;;;;;;;6.00;4.20;;;;;;;6.42;81.51;97924.53;1680589;84;21178;-70
2021/04/22 03:23:23;;;;;;;5.45;3.83;;;;;;;6.41;81.21;97925.95;1685159;84;21201;-71
2021/04/22 03:25:51;;;;;;;6.20;3.12;;;;;;;6.43;81.02;97929.23;1677186;85;21190;-69
2021/04/22 03:28:19;;;;;;;6.75;3.55;;;;;;;6.43;80.99;97931.34;1677378;84;21185;-71
2021/04/22 03:30:47;;;;;;;6.92;4.20;;;;;;;6.42;81.47;97932.27;1693538;84;21182;-69
2021/04/22 03:33:15;;;;;;;3.95;2.95;;;;;;;6.40;81.13;97923.84;1706456;84;21250;-72
2021/04/22 03:35:43;;;;;;;7.10;3.60;;;;;;;6.38;81.12;97923.13;1686539;84;21169;-69
2021/04/22 03:38:12;;;;;;;4.62;3.02;;;;;;;6.37;80.91;97925.38;1678936;84;21168;-69
2021/04/22 03:40:40;;;;;;;6.53;3.87;;;;;;;6.37;81.42;97924.55;1686505;85;21188;-69
2021/04/22 03:43:08;;;;;;;4.40;3.02;;;;;;;6.37;81.28;97928.42;1686299;84;21175;-72
2021/04/22 03:45:36;;;;;;;6.37;4.40;;;;;;;6.36;81.02;97928.06;1686451;84;21212;-69
2021/04/22 03:48:04;;;;;;;13.38;8.75;;;;;;;6.33;81.05;97929.59;1686381;84;21596;-72
2021/04/22 03:50:32;;;;;;;8.95;5.33;;;;;;;6.29;81.13;97928.19;1686425;85;21174;-71
2021/04/22 03:53:00;;;;;;;7.53;5.10;;;;;;;6.26;81.16;97933.58;1688994;83;21208;-72
2021/04/22 03:55:28;;;;;;;6.80;4.62;;;;;;;6.25;81.16;97939.66;1699666;84;21163;-66
2021/04/22 03:57:57;;;;;;;5.72;3.25;;;;;;;6.23;81.29;97937.19;1695001;83;21159;-66
2021/04/22 04:00:25;;;;;;;6.42;3.77;;;;;;;6.24;81.37;97936.73;1699813;84;21643;-66
2021/04/22 04:02:54;;;;;;;4.25;3.25;;;;;;;6.22;81.63;97936.03;1695192;85;21589;-70
2021/04/22 04:05:22;;;;;;;11.80;6.35;;;;;;;6.16;83.28;97939.89;1700133;84;21166;-69
2021/04/22 04:07:52;;;;;;;6.37;4.37;;;;;;;6.11;84.68;97942.80;1695372;85;21164;-69
2021/04/22 04:10:20;;;;;;;4.78;3.37;;;;;;;6.12;84.75;97936.72;1699760;84;21556;-70
2021/04/22 04:12:49;;;;;;;18.52;3.95;;;;;;;6.19;83.61;97945.63;1695298;83;21159;-70
2021/04/22 04:15:17;;;;;;;4.17;2.70;;;;;;;6.28;83.01;97949.28;1699886;84;21608;-69
2021/04/22 04:17:45;;;;;;;7.47;4.80;;;;;;;6.36;82.60;97946.12;1686034;84;21210;-69
2021/04/22 04:20:15;;;;;;;5.62;3.62;;;;;;;6.40;82.18;97944.95;1676217;85;21203;-69
2021/04/22 04:22:44;;;;;;;14.80;4.33;;;;;;;6.44;82.29;97948.47;1675771;85;21231;-69
2021/04/22 04:25:13;;;;;;;5.90;3.02;;;;;;;6.51;81.95;97952.22;1675870;85;21243;-68
2021/04/22 04:27:41;;;;;;;4.37;3.58;;;;;;;6.58;81.56;97949.52;1676263;85;21179;-68
2021/04/22 04:30:32;;;;;;;5.37;4.05;;;;;;;6.63;81.33;97955.61;1676183;85;21243;-68
2021/04/22 04:33:00;;;;;;;7.65;4.28;;;;;;;6.66;81.17;97956.66;1729181;82;21574;-69
2021/04/22 04:35:28;;;;;;;8.08;4.15;;;;;;;6.61;81.01;97954.42;1728984;83;21204;-68
2021/04/22 04:37:56;;;;;;;12.37;4.95;;;;;;;6.62;81.05;97956.55;1729158;83;21197;-69
2021/04/22 04:40:24;;;;;;;17.85;6.92;;;;;;;6.65;81.28;97958.41;1729175;83;21279;-69
2021/04/22 04:42:52;;;;;;;9.48;5.83;;;;;;;6.60;82.63;97959.72;1729043;83;21169;-64
2021/04/22 04:45:32;;;;;;;10.58;5.60;;;;;;;6.56;82.52;97961.72;1724799;83;21138;-63
2021/04/22 04:48:03;;;;;;;9.23;5.58;;;;;;;6.54;82.75;97962.76;1726545;83;21142;-65
2021/04/22 04:50:31;;;;;;;13.83;5.90;;;;;;;6.54;82.23;97964.05;1726453;83;21571;-62
2021/04/22 04:53:00;;;;;;;12.15;5.35;;;;;;;6.59;81.82;97967.93;1726571;83;21681;-65
2021/04/22 04:55:28;;;;;;;7.45;4.20;;;;;;;6.64;81.62;97965.00;1726424;83;21174;-65
2021/04/22 04:57:57;;;;;;;10.72;5.17;;;;;;;6.68;81.61;97967.70;1726385;83;21670;-65
2021/04/22 05:00:27;;;;;;;19.05;5.87;;;;;;;6.74;81.58;97961.22;1726756;83;21359;-63
2021/04/22 05:02:55;;;;;;;8.75;4.83;;;;;;;6.79;81.21;97962.52;1726428;83;21315;-63
2021/04/22 05:05:23;;;;;;;6.40;4.40;;;;;;;6.89;80.78;97967.77;1726352;83;21264;-64
2021/04/22 05:07:51;;;;;;;9.33;4.58;;;;;;;6.99;80.53;97973.41;1726536;83;21143;-69
2021/04/22 05:10:19;;;;;;;7.85;4.00;;;;;;;7.09;80.64;97965.28;1726384;83;21170;-67
2021/04/22 05:12:47;;;;;;;7.65;4.50;;;;;;;7.19;80.21;97968.44;1726479;83;21318;-68
2021/04/22 05:15:16;;;;;;;9.15;4.25;;;;;;;7.27;79.82;97966.90;1726364;83;21288;-70
2021/04/22 05:17:44;;;;;;;6.72;4.33;;;;;;;7.33;79.68;97961.23;1726637;83;21155;-70
2021/04/22 05:20:16;;;;;;;6.37;4.03;;;;;;;7.35;79.46;97959.36;1726646;83;21249;-70
2021/04/22 05:22:45;;;;;;;7.28;4.28;;;;;;;7.40;79.12;97963.66;1713577;83;21173;-69
2021/04/22 05:25:14;;;;;;;7.28;4.47;;;;;;;7.45;79.12;97969.77;1713791;83;22058;-69
2021/04/22 05:27:41;;;;;;;9.35;4.85;;;;;;;7.44;79.69;97967.64;1677547;85;21234;-70
2021/04/22 05:30:13;;;;;;;9.85;5.17;;;;;;;7.42;79.90;97964.84;1716243;83;21177;-68
2021/04/22 05:32:41;;;;;;;11.18;4.67;;;;;;;7.48;79.54;97959.17;1715470;83;21503;-69
2021/04/22 05:35:12;;;;;;;12.43;5.22;;;;;;;7.52;79.29;97963.16;1716665;83;21574;-69
2021/04/22 05:37:41;;;;;;;8.00;4.87;;;;;;;7.51;79.55;97966.67;1682404;85;21666;-69
2021/04/22 05:42:50;;;;;;;7.12;4.80;;;;;;;7.67;78.97;97974.83;1636144;87;21216;-69
2021/04/22 05:45:39;;;;;;;5.53;3.70;;;;;;;7.79;78.20;97971.72;1692396;84;22097;-69
2021/04/22 05:48:08;;;;;;;5.75;4.00;;;;;;;7.92;77.75;97968.50;1724689;82;21281;-64
2021/04/22 05:50:36;;;;;;;5.62;3.35;;;;;;;8.04;76.70;97965.73;1725053;82;21246;-65
2021/04/22 05:53:07;;;;;;;9.95;4.58;;;;;;;8.05;76.58;97967.34;1724830;82;21162;-67
2021/04/22 05:55:35;;;;;;;8.83;3.58;;;;;;;8.10;76.24;97973.44;1724986;82;21123;-66
2021/04/22 05:58:03;;;;;;;8.43;4.10;;;;;;;8.13;76.47;97969.33;1724900;83;21570;-69
2021/04/22 06:00:31;;;;;;;7.97;4.12;;;;;;;8.23;76.24;97965.48;1724871;81;21681;-69
2021/04/22 06:03:00;;;;;;;13.43;8.03;;;;;;;8.32;75.73;97964.76;1724901;82;21340;-69
2021/04/22 06:05:28;;;;;;;8.40;5.00;;;;;;;8.37;75.79;97965.17;1724648;82;21654;-69
2021/04/22 06:07:59;;;;;;;6.65;3.67;;;;;;;8.55;75.54;97970.11;1725181;82;21190;-67
2021/04/22 06:10:29;;;;;;;5.75;3.58;;;;;;;8.71;74.74;97965.27;1724687;82;21119;-66
2021/04/22 06:12:59;;;;;;;7.58;3.87;;;;;;;8.88;73.86;97971.11;1724403;81;21324;-65
2021/04/22 06:15:27;;;;;;;7.87;4.40;;;;;;;9.05;73.04;97965.30;1724754;83;21131;-65
2021/04/22 06:17:55;;;;;;;8.98;5.35;;;;;;;9.23;72.39;97968.52;1724768;81;21127;-66
2021/04/22 06:20:25;;;;;;;9.38;4.42;;;;;;;9.33;71.83;97971.97;1724820;82;21198;-69
2021/04/22 06:22:53;;;;;;;8.23;4.20;;;;;;;9.50;71.03;97969.52;1724789;82;21590;-69
2021/04/22 06:25:22;;;;;;;10.28;4.70;;;;;;;9.59;70.69;97974.84;1724886;83;21190;-69
2021/04/22 06:27:53;;;;;;;6.75;4.08;;;;;;;9.74;70.48;97965.22;1724978;81;21336;-69
2021/04/22 06:30:24;;;;;;;7.03;4.87;;;;;;;9.88;70.41;97968.67;1724686;81;21215;-66
2021/04/22 06:32:53;;;;;;;7.58;3.92;;;;;;;10.00;69.48;97958.49;1724789;81;21725;-66
2021/04/22 06:35:23;;;;;;;15.10;5.05;;;;;;;10.11;69.17;97954.12;1725009;82;21194;-66
2021/04/22 06:37:50;;;;;;;9.75;5.20;;;;;;;10.22;69.30;97951.39;1725016;81;21301;-66
2021/04/22 06:40:22;;;;;;;15.00;6.35;;;;;;;10.32;69.04;97958.66;1724715;83;21624;-65
2021/04/22 06:42:54;;;;;;;9.65;4.80;;;;;;;10.40;68.72;97943.20;1724731;83;21183;-66
2021/04/22 06:45:24;;;;;;;6.80;4.53;;;;;;;10.45;69.33;97944.91;1735267;79;21176;-66
2021/04/22 06:47:52;;;;;;;12.45;4.72;;;;;;;10.56;69.20;97942.59;1751774;80;21549;-66
2021/04/22 06:50:23;;;;;;;7.10;4.28;;;;;;;10.62;69.62;97941.53;1748449;81;21628;-66
2021/04/22 06:52:52;;;;;;;6.87;4.30;;;;;;;10.73;69.49;97937.95;1751318;82;21140;-66
2021/04/22 06:55:23;;;;;;;8.60;4.92;;;;;;;10.75;69.40;97942.52;1751360;82;21219;-66
2021/04/22 06:57:53;;;;;;;15.13;7.42;;;;;;;10.87;69.50;97951.27;1750587;82;21553;-66
2021/04/22 07:00:43;;;;;;;14.45;5.78;;;;;;;10.95;69.67;97949.25;1751019;81;21196;-66
2021/04/22 07:03:11;;;;;;;14.13;4.80;;;;;;;11.20;69.11;97952.47;1692475;85;21161;-69
2021/04/22 07:05:39;;;;;;;9.58;4.35;;;;;;;11.36;68.48;97951.30;1685462;85;21138;-66
2021/04/22 07:08:08;;;;;;;6.80;3.77;;;;;;;11.50;67.30;97953.89;1692521;84;21142;-66
2021/04/22 07:10:37;;;;;;;6.90;4.00;;;;;;;11.63;66.29;97958.24;1685390;85;21170;-67
2021/04/22 07:13:07;;;;;;;10.90;4.35;;;;;;;11.68;65.55;97952.56;1692473;84;21562;-69
2021/04/22 07:15:36;;;;;;;8.65;5.22;;;;;;;11.78;65.45;97963.76;1685333;85;21145;-69
2021/04/22 07:18:26;;;;;;;7.55;4.53;;;;;;;11.85;65.32;97959.11;1692363;84;21196;-69
2021/04/22 07:20:54;;;;;;;9.40;5.03;;;;;;;11.94;64.56;97960.47;1628996;86;21185;-69
2021/04/22 07:23:22;;;;;;;9.15;4.40;;;;;;;11.94;64.36;97963.08;1629085;88;21154;-69
2021/04/22 07:25:51;;;;;;;10.03;5.12;;;;;;;12.06;63.87;97957.45;1629318;88;21198;-68
2021/04/22 07:28:19;;;;;;;10.10;4.85;;;;;;;12.19;63.57;97954.45;1629253;88;21189;-69
2021/04/22 07:30:48;;;;;;;9.05;4.10;;;;;;;12.30;64.24;97958.10;1629031;87;21226;-69
2021/04/22 07:33:17;;;;;;;7.35;4.72;;;;;;;12.45;63.73;97959.17;1628998;87;21250;-70
2021/04/22 07:35:45;;;;;;;9.43;4.37;;;;;;;12.51;62.75;97952.05;1629036;88;21179;-69
2021/04/22 07:38:15;;;;;;;8.20;4.40;;;;;;;12.86;62.25;97957.59;1629305;87;21197;-69
2021/04/22 07:40:50;;;;;;;11.05;4.75;;;;;;;13.07;62.40;97958.48;1628824;87;21187;-69
2021/04/22 07:43:18;;;;;;;6.65;3.98;;;;;;;13.10;61.99;97952.98;1629066;87;21645;-70
2021/04/22 07:45:46;;;;;;;8.68;4.28;;;;;;;13.23;61.12;97949.41;1629077;87;21197;-68
2021/04/22 07:48:15;;;;;;;7.85;5.35;;;;;;;13.38;61.06;97953.06;1629129;87;21174;-68
2021/04/22 07:50:44;;;;;;;5.60;4.37;;;;;;;13.61;61.17;97954.55;1629312;87;21226;-69
2021/04/22 07:53:12;;;;;;;10.68;4.30;;;;;;;13.74;60.53;97945.25;1628947;88;21178;-69
2021/04/22 07:55:44;;;;;;;9.80;5.08;;;;;;;13.96;59.82;97952.94;1629096;88;21190;-67
2021/04/22 07:58:14;;;;;;;11.18;4.45;;;;;;;14.10;59.35;97948.83;1629206;88;21203;-69
2021/04/22 08:01:04;;;;;;;6.80;4.42;;;;;;;14.27;58.40;97940.00;1628629;87;21206;-69
2021/04/22 08:03:32;;;;;;;9.15;4.80;;;;;;;14.40;57.62;97945.53;1676995;85;21246;-69
2021/04/22 08:06:00;;;;;;;7.30;4.67;;;;;;;14.38;58.17;97938.38;1677137;84;21298;-67
2021/04/22 08:08:31;;;;;;;6.03;3.15;;;;;;;14.54;57.63;97947.97;1676935;84;21132;-66
2021/04/22 08:11:01;;;;;;;8.13;3.58;;;;;;;14.75;57.86;97942.19;1676878;84;21203;-66
2021/04/22 08:13:30;;;;;;;6.25;3.90;;;;;;;14.91;57.39;97923.30;1677161;84;21206;-66
2021/04/22 08:15:58;;;;;;;6.53;4.20;;;;;;;15.16;57.13;97945.75;1677061;85;21592;-72
2021/04/22 08:18:29;;;;;;;4.90;3.10;;;;;;;15.45;56.40;97941.63;1676725;85;21180;-66
2021/04/22 08:20:58;;;;;;;7.37;4.90;;;;;;;15.76;55.72;97935.87;1676694;85;21216;-66
2021/04/22 08:23:32;;;;;;;6.25;4.72;;;;;;;15.79;53.41;97940.79;1676827;85;21196;-67
2021/04/22 08:26:04;;;;;;;6.62;4.58;;;;;;;15.82;53.46;97935.20;1676856;84;21612;-66
2021/04/22 08:28:33;;;;;;;10.28;5.53;;;;;;;15.92;53.91;97934.94;1676870;85;21573;-66
2021/04/22 08:31:09;;;;;;;8.73;4.62;;;;;;;15.93;53.41;97945.24;1676837;84;21172;-66
2021/04/22 08:33:38;;;;;;;;;;;;;;;15.69;53.98;97933.65;1679078;84;21580;-66
2021/04/22 08:36:08;;;;;;;9.50;3.90;;;;;;;15.82;53.95;97936.99;1676946;85;20131;-67
2021/04/22 08:38:37;;;;;;;7.00;3.62;;;;;;;15.80;53.96;97938.47;1676865;85;21188;-66
2021/04/22 08:41:06;;;;;;;5.10;3.20;;;;;;;15.86;53.51;97940.40;1676586;84;21216;-66
2021/04/22 08:43:37;;;;;;;9.13;4.08;;;;;;;15.88;53.48;97936.27;1676860;84;21184;-66
2021/04/22 08:46:07;;;;;;;7.85;4.62;;;;;;;15.85;54.22;97932.70;1677044;85;21227;-66
2021/04/22 08:48:36;;;;;;;6.60;4.25;;;;;;;15.89;54.46;97925.64;1676960;84;21585;-67
2021/04/22 08:51:06;;;;;;;11.00;4.08;;;;;;;15.86;54.22;97919.45;1677121;84;21140;-66
2021/04/22 08:53:38;;;;;;;6.22;4.30;;;;;;;16.04;54.81;97926.97;1677306;85;21227;-67
2021/04/22 08:56:26;;;;;;;8.18;3.58;;;;;;;16.11;54.97;97922.16;1677097;84;21197;-67
2021/04/22 08:58:54;;;;;;;12.80;3.77;;;;;;;16.19;54.51;97925.19;1633436;88;21247;-67
2021/04/22 09:01:22;;;;;;;8.73;4.45;;;;;;;16.26;51.96;97919.58;1633222;86;21183;-66
2021/04/22 09:03:51;;;;;;;6.05;3.45;;;;;;;16.12;51.51;97921.17;1633557;86;21182;-66
2021/04/22 09:06:19;;;;;;;6.08;3.60;;;;;;;16.21;51.38;97918.47;1633485;86;21152;-66
2021/04/22 09:08:52;;;;;;;5.50;3.55;;;;;;;16.32;51.40;97920.64;1633383;86;21215;-68
2021/04/22 09:11:28;;;;;;;6.30;3.35;;;;;;;16.31;51.62;97923.76;1633414;86;21621;-66
2021/04/22 09:13:57;;;;;;;12.90;4.35;;;;;;;16.37;51.69;97924.86;1633658;88;21588;-66
2021/04/22 09:16:28;;;;;;;9.80;5.40;;;;;;;16.30;52.21;97922.13;1633600;86;21576;-67
2021/04/22 09:19:13;;;;;;;9.38;4.65;;;;;;;16.12;51.61;97919.86;1595068;88;21196;-66
2021/04/22 09:21:46;;;;;;;9.40;4.85;;;;;;;16.17;51.53;97918.02;1622314;86;21195;-66
2021/04/22 09:24:19;;;;;;;7.12;4.92;;;;;;;16.12;51.22;97916.42;1628969;88;21136;-66
2021/04/22 09:26:56;;;;;;;8.65;4.50;;;;;;;15.89;50.83;97917.78;1629268;87;21259;-66
2021/04/22 09:29:46;;;;;;;6.05;3.95;;;;;;;16.03;51.48;97916.20;1628940;87;21232;-66
2021/04/22 09:32:26;;;;;;;9.20;5.30;;;;;;;15.85;49.98;97913.88;1628863;87;21648;-67
2021/04/22 09:35:02;;;;;;;7.90;4.20;;;;;;;16.07;48.62;97914.33;1629033;87;21245;-67
2021/04/22 09:37:41;;;;;;;7.50;4.47;;;;;;;16.51;48.27;97912.24;1611001;88;21259;-66
2021/04/22 09:40:37;;;;;;;6.22;3.58;;;;;;;16.85;48.15;97915.63;1629046;86;21581;-68
2021/04/22 09:43:12;;;;;;;5.20;3.40;;;;;;;17.26;47.87;97910.17;1629341;87;21208;-69
2021/04/22 09:45:43;;;;;;;6.42;4.00;;;;;;;17.00;46.35;97926.94;1628937;87;21224;-69
2021/04/22 09:48:20;;;;;;;6.08;3.47;;;;;;;16.95;47.39;97918.80;1628896;87;21175;-66
2021/04/22 09:50:49;;;;;;;6.85;4.40;;;;;;;16.72;46.58;97916.30;1629161;87;21160;-66
2021/04/22 09:53:18;;;;;;;7.53;3.52;;;;;;;16.77;47.21;97915.23;1629451;86;21235;-67
2021/04/22 09:55:47;;;;;;;6.67;3.55;;;;;;;16.41;46.37;97916.95;1628817;88;21163;-68
2021/04/22 09:58:27;;;;;;;4.70;2.50;;;;;;;16.19;45.91;97913.39;1628904;87;21187;-68
2021/04/22 10:01:08;;;;;;;;;;;;;;;16.11;44.58;97907.74;1780877;79;23026;-68
2021/04/22 10:03:37;;;;;;;7.75;3.08;;;;;;;15.78;45.25;97904.30;1721110;82;20138;-68
2021/04/22 10:06:05;;;;;;;4.67;3.15;;;;;;;15.74;44.29;97899.09;1753505;82;21200;-68
2021/04/22 10:08:39;;;;;;;2.92;2.08;;;;;;;15.81;45.65;97890.84;1753503;82;21147;-68
2021/04/22 10:11:08;;;;;;;3.45;2.27;;;;;;;16.13;46.13;97887.92;1752830;82;21605;-67
2021/04/22 10:13:46;;;;;;;4.40;2.47;;;;;;;16.32;45.91;97887.39;1753181;82;21125;-66
2021/04/22 10:16:15;;;;;;;2.90;1.92;;;;;;;16.62;43.85;97889.53;1767629;80;21123;-68
2021/04/22 10:18:46;;;;;;;5.85;2.65;;;;;;;16.79;42.25;97888.34;1756575;80;21163;-68
2021/04/22 10:21:15;;;;;;;5.15;3.22;;;;;;;16.78;42.30;97885.89;1756055;80;21150;-68
2021/04/22 10:23:45;;;;;;;4.15;2.90;;;;;;;16.49;42.26;97887.55;1756224;80;21218;-68
2021/04/22 10:26:21;;;;;;;3.72;2.30;;;;;;;16.57;42.62;97890.59;1756115;80;21159;-68
2021/04/22 10:28:49;;;;;;;5.12;3.70;;;;;;;16.68;43.15;97891.94;1756513;82;21170;-68
2021/04/22 10:31:17;;;;;;;9.43;3.55;;;;;;;16.44;42.62;97887.76;1756416;80;21123;-67
2021/04/22 10:33:46;;;;;;;5.80;2.85;;;;;;;16.28;42.96;97878.76;1756223;82;21575;-66
2021/04/22 10:36:19;;;;;;;4.28;2.72;;;;;;;16.04;44.76;97893.73;1756262;80;21187;-66
2021/04/22 10:38:55;;;;;;;5.00;3.25;;;;;;;15.91;45.92;97897.97;1749851;82;21164;-68
2021/04/22 10:41:24;;;;;;;5.42;3.50;;;;;;;15.85;46.14;97894.73;1738311;81;21179;-68
2021/04/22 10:43:54;;;;;;;4.42;2.83;;;;;;;15.92;46.29;97897.78;1753141;80;21612;-68
2021/04/22 10:46:23;;;;;;;4.83;3.52;;;;;;;16.21;47.70;97904.87;1753076;82;21145;-68
2021/04/22 10:48:52;;;;;;;3.45;2.25;;;;;;;16.34;47.12;97911.59;1753427;81;21151;-68
2021/04/22 10:51:21;;;;;;;4.62;3.00;;;;;;;16.45;46.75;97914.29;1753262;81;21561;-68
2021/04/22 10:53:51;;;;;;;4.97;2.83;;;;;;;16.27;46.13;97912.50;1724265;82;21156;-68
2021/04/22 10:56:28;;;;;;;5.65;3.75;;;;;;;16.00;49.83;97906.05;1753318;81;21164;-68
2021/04/22 10:58:56;;;;;;;4.65;2.85;;;;;;;15.20;56.55;97882.13;1753077;82;21152;-68
2021/04/22 11:01:38;;;;;;;3.85;3.25;;;;;;;14.64;58.02;97881.93;1752968;81;21180;-68
2021/04/22 11:04:10;;;;;;;6.75;3.83;;;;;;;13.99;63.38;97876.88;1753192;82;21675;-68
2021/04/22 11:06:43;;;;;;;9.95;3.02;;;;;;;13.34;66.62;97888.33;1753263;82;21155;-68
2021/04/22 11:09:20;;;;;;;5.87;3.35;;;;;;;13.04;67.92;97884.48;1752956;82;21172;-68
2021/04/22 11:11:57;;;;;;;4.42;3.25;;;;;;;12.94;68.19;97873.39;1752817;80;21177;-68
2021/04/22 11:14:43;;;;;;;6.10;3.77;;;;;;;12.98;67.50;97878.13;1752696;82;21117;-68
2021/04/22 11:17:12;;;;;;;4.60;3.17;;;;;;;13.27;67.70;97879.83;1752715;81;21636;-68
2021/04/22 11:19:44;;;;;;;4.15;2.58;;;;;;;13.77;63.59;97895.33;1752436;80;21589;-67
2021/04/22 11:22:26;;;;;;;4.97;3.27;;;;;;;14.06;61.07;97914.40;1764673;80;21730;-67
2021/04/22 11:24:59;;;;;;;5.03;2.50;;;;;;;14.33;58.90;97924.14;1755447;80;21146;-68
2021/04/22 11:27:32;;;;;;;6.70;3.08;;;;;;;14.65;57.96;97924.90;1722285;83;21144;-68
2021/04/22 11:30:05;;;;;;;6.55;3.42;;;;;;;14.99;58.39;97915.91;1722602;83;21591;-68
2021/04/22 11:32:38;;;;;;;11.43;3.47;;;;;;;15.30;56.38;97898.89;1735753;82;21157;-68
2021/04/22 11:35:20;;;;;;;4.60;2.72;;;;;;;16.16;56.76;97899.35;1732456;81;21246;-68
2021/04/22 11:37:51;;;;;;;4.80;2.37;;;;;;;17.21;56.03;97887.60;1728911;82;21192;-68
2021/04/22 11:40:30;;;;;;;3.15;2.50;;;;;;;17.99;51.81;97877.02;1700088;82;21228;-68
2021/04/22 11:42:58;;;;;;;4.08;2.30;;;;;;;18.77;45.56;97861.40;1744101;82;21637;-67
2021/04/22 11:45:33;;;;;;;2.58;1.87;;;;;;;19.54;47.51;97861.49;1734596;82;21164;-68
2021/04/22 11:48:11;;;;;;;2.35;1.72;;;;;;;20.61;42.61;97850.94;1744800;82;21628;-68
2021/04/22 11:50:57;;;;;;;6.10;3.58;;;;;;;21.57;39.00;97841.06;1744994;82;21132;-71
2021/04/22 11:53:45;;;;;;;15.70;10.30;;;;;;;22.32;34.32;97826.47;1744922;82;21239;-71
2021/04/22 11:56:14;;;;;;;4.80;3.15;;;;;;;22.50;28.48;97819.84;1711930;84;21170;-71
2021/04/22 11:58:42;;;;;;;21.73;11.20;;;;;;;22.33;31.34;97810.39;1707396;84;21287;-71